sensor_id;sensor_type;location;lat;lon;timestamp;pressure;altitude;pressure_sealevel;temperature;humidity
10480;BME280;12789;42.610;23.040;2022-08-19T00:01:53;93440.34;;;18.34;100.00
10480;BME280;12789;42.610;23.040;2022-08-19T00:04:22;93450.31;;;18.52;100.00
10480;BME280;12789;42.610;23.040;2022-08-19T00:06:51;93456.69;;;18.36;100.00
10480;BME280;12789;42.610;23.040;2022-08-19T00:09:21;93459.13;;;18.38;100.00
10480;BME280;12789;42.610;23.040;2022-08-19T00:11:49;93460.03;;;18.24;100.00
10480;BME280;12789;42.610;23.040;2022-08-19T00:14:18;93466.06;;;18.24;100.00
10480;BME280;12789;42.610;23.040;2022-08-19T00:16:46;93476.34;;;18.47;100.00
10480;BME280;12789;42.610;23.040;2022-08-19T00:19:14;93477.75;;;18.49;100.00
10480;BME280;12789;42.610;23.040;2022-08-19T00:21:41;93480.94;;;18.38;100.00
10480;BME280;12789;42.610;23.040;2022-08-19T00:24:11;93479.28;;;18.31;100.00
10480;BME280;12789;42.610;23.040;2022-08-19T00:26:39;93471.53;;;18.23;100.00
10480;BME280;12789;42.610;23.040;2022-08-19T00:29:08;93469.16;;;18.28;100.00
10480;BME280;12789;42.610;23.040;2022-08-19T00:31:38;93460.59;;;18.13;100.00
10480;BME280;12789;42.610;23.040;2022-08-19T00:34:05;93472.22;;;18.04;100.00
10480;BME280;12789;42.610;23.040;2022-08-19T00:36:32;93466.84;;;18.12;100.00
10480;BME280;12789;42.610;23.040;2022-08-19T00:39:00;93468.22;;;18.08;100.00
10480;BME280;12789;42.610;23.040;2022-08-19T00:41:28;93454.34;;;18.14;100.00
10480;BME280;12789;42.610;23.040;2022-08-19T00:44:00;93450.69;;;18.15;100.00
10480;BME280;12789;42.610;23.040;2022-08-19T00:46:28;93450.22;;;18.05;100.00
10480;BME280;12789;42.610;23.040;2022-08-19T00:48:57;93444.47;;;18.16;100.00
10480;BME280;12789;42.610;23.040;2022-08-19T00:51:26;93449.59;;;18.03;100.00
10480;BME280;12789;42.610;23.040;2022-08-19T00:53:55;93454.84;;;17.97;100.00
10480;BME280;12789;42.610;23.040;2022-08-19T00:56:23;93451.81;;;18.00;100.00
10480;BME280;12789;42.610;23.040;2022-08-19T00:58:52;93440.03;;;17.89;100.00
10480;BME280;12789;42.610;23.040;2022-08-19T01:01:21;93446.84;;;17.77;100.00
10480;BME280;12789;42.610;23.040;2022-08-19T01:03:48;93454.88;;;17.76;100.00
10480;BME280;12789;42.610;23.040;2022-08-19T01:06:17;93451.06;;;17.78;100.00
10480;BME280;12789;42.610;23.040;2022-08-19T01:08:44;93448.72;;;17.62;100.00
10480;BME280;12789;42.610;23.040;2022-08-19T01:11:11;93447.31;;;17.60;100.00
10480;BME280;12789;42.610;23.040;2022-08-19T01:13:38;93450.97;;;17.65;100.00
10480;BME280;12789;42.610;23.040;2022-08-19T01:16:09;93454.97;;;17.61;100.00
10480;BME280;12789;42.610;23.040;2022-08-19T01:18:39;93456.34;;;17.57;100.00
10480;BME280;12789;42.610;23.040;2022-08-19T01:21:10;93447.56;;;17.44;100.00
10480;BME280;12789;42.610;23.040;2022-08-19T01:23:42;93448.09;;;17.60;100.00
10480;BME280;12789;42.610;23.040;2022-08-19T01:26:11;93451.25;;;17.49;100.00
10480;BME280;12789;42.610;23.040;2022-08-19T01:28:39;93448.34;;;17.65;100.00
10480;BME280;12789;42.610;23.040;2022-08-19T01:31:07;93449.25;;;17.51;100.00
10480;BME280;12789;42.610;23.040;2022-08-19T01:33:37;93448.16;;;17.67;100.00
10480;BME280;12789;42.610;23.040;2022-08-19T01:36:07;93442.88;;;17.60;100.00
10480;BME280;12789;42.610;23.040;2022-08-19T01:38:36;93447.44;;;17.79;100.00
10480;BME280;12789;42.610;23.040;2022-08-19T01:41:05;93449.16;;;17.66;100.00
10480;BME280;12789;42.610;23.040;2022-08-19T01:43:33;93450.31;;;17.57;100.00
10480;BME280;12789;42.610;23.040;2022-08-19T01:46:00;93449.25;;;17.51;100.00
10480;BME280;12789;42.610;23.040;2022-08-19T01:48:33;93451.25;;;17.49;100.00
10480;BME280;12789;42.610;23.040;2022-08-19T01:51:00;93458.41;;;17.34;100.00
10480;BME280;12789;42.610;23.040;2022-08-19T01:53:28;93459.97;;;17.56;100.00
10480;BME280;12789;42.610;23.040;2022-08-19T01:55:55;93453.88;;;17.49;100.00
10480;BME280;12789;42.610;23.040;2022-08-19T01:58:29;93448.84;;;17.48;100.00
10480;BME280;12789;42.610;23.040;2022-08-19T02:00:59;93449.41;;;17.43;100.00
10480;BME280;12789;42.610;23.040;2022-08-19T02:03:26;93448.53;;;17.36;100.00
10480;BME280;12789;42.610;23.040;2022-08-19T02:05:55;93449.25;;;17.30;100.00
10480;BME280;12789;42.610;23.040;2022-08-19T02:08:23;93448.38;;;17.23;100.00
10480;BME280;12789;42.610;23.040;2022-08-19T02:10:50;93447.75;;;17.21;100.00
10480;BME280;12789;42.610;23.040;2022-08-19T02:13:18;93457.06;;;17.24;100.00
10480;BME280;12789;42.610;23.040;2022-08-19T02:15:50;93449.75;;;17.19;100.00
10480;BME280;12789;42.610;23.040;2022-08-19T02:18:17;93443.91;;;17.38;100.00
10480;BME280;12789;42.610;23.040;2022-08-19T02:20:45;93450.59;;;17.26;100.00
10480;BME280;12789;42.610;23.040;2022-08-19T02:23:15;93447.16;;;17.40;100.00
10480;BME280;12789;42.610;23.040;2022-08-19T02:25:44;93438.56;;;17.32;100.00
10480;BME280;12789;42.610;23.040;2022-08-19T02:28:12;93453.38;;;17.18;100.00
10480;BME280;12789;42.610;23.040;2022-08-19T02:30:41;93458.28;;;17.07;100.00
10480;BME280;12789;42.610;23.040;2022-08-19T02:33:09;93459.59;;;17.17;100.00
10480;BME280;12789;42.610;23.040;2022-08-19T02:35:36;93460.22;;;17.19;100.00
10480;BME280;12789;42.610;23.040;2022-08-19T02:38:04;93454.38;;;17.17;100.00
10480;BME280;12789;42.610;23.040;2022-08-19T02:40:49;93454.56;;;17.16;100.00
10480;BME280;12789;42.610;23.040;2022-08-19T02:43:18;93454.25;;;17.04;100.00
10480;BME280;12789;42.610;23.040;2022-08-19T02:45:47;93452.13;;;16.93;100.00
10480;BME280;12789;42.610;23.040;2022-08-19T02:48:17;93441.28;;;16.96;100.00
10480;BME280;12789;42.610;23.040;2022-08-19T02:50:45;93441.69;;;17.00;100.00
10480;BME280;12789;42.610;23.040;2022-08-19T02:53:13;93443.25;;;17.15;100.00
10480;BME280;12789;42.610;23.040;2022-08-19T02:55:44;93449.00;;;17.04;100.00
10480;BME280;12789;42.610;23.040;2022-08-19T02:58:12;93445.41;;;17.05;100.00
10480;BME280;12789;42.610;23.040;2022-08-19T03:00:43;93447.56;;;17.02;100.00
10480;BME280;12789;42.610;23.040;2022-08-19T03:03:10;93454.69;;;17.08;100.00
10480;BME280;12789;42.610;23.040;2022-08-19T03:05:40;93452.13;;;17.14;100.00
10480;BME280;12789;42.610;23.040;2022-08-19T03:08:07;93448.19;;;16.83;100.00
10480;BME280;12789;42.610;23.040;2022-08-19T03:10:41;93456.00;;;16.97;100.00
10480;BME280;12789;42.610;23.040;2022-08-19T03:13:11;93457.13;;;17.09;100.00
10480;BME280;12789;42.610;23.040;2022-08-19T03:15:40;93455.16;;;16.97;100.00
10480;BME280;12789;42.610;23.040;2022-08-19T03:18:08;93460.66;;;17.02;100.00
10480;BME280;12789;42.610;23.040;2022-08-19T03:20:41;93459.53;;;16.90;100.00
10480;BME280;12789;42.610;23.040;2022-08-19T03:23:09;93462.34;;;16.88;100.00
10480;BME280;12789;42.610;23.040;2022-08-19T03:25:40;93460.03;;;16.79;100.00
10480;BME280;12789;42.610;23.040;2022-08-19T03:28:08;93453.72;;;16.73;100.00
10480;BME280;12789;42.610;23.040;2022-08-19T03:30:36;93467.72;;;16.66;100.00
10480;BME280;12789;42.610;23.040;2022-08-19T03:33:03;93469.00;;;16.70;100.00
10480;BME280;12789;42.610;23.040;2022-08-19T03:35:30;93474.22;;;16.70;100.00
10480;BME280;12789;42.610;23.040;2022-08-19T03:37:59;93474.88;;;16.57;100.00
10480;BME280;12789;42.610;23.040;2022-08-19T03:40:26;93479.28;;;16.57;100.00
10480;BME280;12789;42.610;23.040;2022-08-19T03:42:55;93477.63;;;16.50;100.00
10480;BME280;12789;42.610;23.040;2022-08-19T03:45:22;93470.47;;;16.44;100.00
10480;BME280;12789;42.610;23.040;2022-08-19T03:47:49;93484.97;;;16.60;100.00
10480;BME280;12789;42.610;23.040;2022-08-19T03:50:16;93489.84;;;16.63;100.00
10480;BME280;12789;42.610;23.040;2022-08-19T03:52:48;93482.28;;;16.54;100.00
10480;BME280;12789;42.610;23.040;2022-08-19T03:55:18;93482.47;;;16.52;100.00
10480;BME280;12789;42.610;23.040;2022-08-19T03:57:45;93483.63;;;16.50;100.00
10480;BME280;12789;42.610;23.040;2022-08-19T04:00:13;93489.09;;;16.69;100.00
10480;BME280;12789;42.610;23.040;2022-08-19T04:02:41;93487.22;;;16.63;100.00
10480;BME280;12789;42.610;23.040;2022-08-19T04:05:09;93489.47;;;16.66;100.00
10480;BME280;12789;42.610;23.040;2022-08-19T04:07:36;93491.94;;;16.89;100.00
10480;BME280;12789;42.610;23.040;2022-08-19T04:10:03;93494.84;;;16.79;100.00
10480;BME280;12789;42.610;23.040;2022-08-19T04:12:32;93493.56;;;16.90;100.00
10480;BME280;12789;42.610;23.040;2022-08-19T04:14:59;93502.81;;;16.71;100.00
10480;BME280;12789;42.610;23.040;2022-08-19T04:17:26;93505.06;;;16.74;100.00
10480;BME280;12789;42.610;23.040;2022-08-19T04:19:53;93504.31;;;16.80;100.00
10480;BME280;12789;42.610;23.040;2022-08-19T04:22:21;93499.88;;;16.95;100.00
10480;BME280;12789;42.610;23.040;2022-08-19T04:24:48;93502.38;;;17.03;100.00
10480;BME280;12789;42.610;23.040;2022-08-19T04:27:15;93513.81;;;17.17;100.00
10480;BME280;12789;42.610;23.040;2022-08-19T04:29:45;93516.97;;;17.12;100.00
10480;BME280;12789;42.610;23.040;2022-08-19T04:32:14;93514.22;;;17.20;100.00
10480;BME280;12789;42.610;23.040;2022-08-19T04:34:42;93503.28;;;17.31;100.00
10480;BME280;12789;42.610;23.040;2022-08-19T04:37:09;93506.56;;;17.33;100.00
10480;BME280;12789;42.610;23.040;2022-08-19T04:39:37;93510.63;;;17.21;100.00
10480;BME280;12789;42.610;23.040;2022-08-19T04:42:21;93508.50;;;17.31;100.00
10480;BME280;12789;42.610;23.040;2022-08-19T04:45:10;93502.19;;;17.40;100.00
10480;BME280;12789;42.610;23.040;2022-08-19T04:47:40;93511.50;;;17.28;100.00
10480;BME280;12789;42.610;23.040;2022-08-19T04:50:08;93497.13;;;17.24;100.00
10480;BME280;12789;42.610;23.040;2022-08-19T04:52:37;93499.41;;;17.27;100.00
10480;BME280;12789;42.610;23.040;2022-08-19T04:55:08;93503.22;;;17.46;100.00
10480;BME280;12789;42.610;23.040;2022-08-19T04:57:36;93505.56;;;17.34;100.00
10480;BME280;12789;42.610;23.040;2022-08-19T05:00:06;93506.28;;;17.49;100.00
10480;BME280;12789;42.610;23.040;2022-08-19T05:02:36;93498.19;;;17.44;100.00
10480;BME280;12789;42.610;23.040;2022-08-19T05:05:04;93503.19;;;17.39;100.00
10480;BME280;12789;42.610;23.040;2022-08-19T05:07:31;93502.66;;;17.50;100.00
10480;BME280;12789;42.610;23.040;2022-08-19T05:09:59;93514.25;;;17.62;100.00
10480;BME280;12789;42.610;23.040;2022-08-19T05:12:26;93510.75;;;17.55;100.00
10480;BME280;12789;42.610;23.040;2022-08-19T05:14:54;93505.66;;;17.47;100.00
10480;BME280;12789;42.610;23.040;2022-08-19T05:17:22;93516.63;;;17.57;100.00
10480;BME280;12789;42.610;23.040;2022-08-19T05:19:50;93509.75;;;17.77;100.00
10480;BME280;12789;42.610;23.040;2022-08-19T05:22:31;93510.84;;;17.89;100.00
10480;BME280;12789;42.610;23.040;2022-08-19T05:25:04;93512.69;;;17.95;100.00
10480;BME280;12789;42.610;23.040;2022-08-19T05:27:31;93515.44;;;18.08;100.00
10480;BME280;12789;42.610;23.040;2022-08-19T05:29:58;93517.09;;;18.15;100.00
10480;BME280;12789;42.610;23.040;2022-08-19T05:32:26;93507.97;;;18.32;100.00
10480;BME280;12789;42.610;23.040;2022-08-19T05:34:56;93516.47;;;18.41;100.00
10480;BME280;12789;42.610;23.040;2022-08-19T05:37:22;93512.59;;;18.37;100.00
10480;BME280;12789;42.610;23.040;2022-08-19T05:39:52;93522.38;;;18.49;100.00
10480;BME280;12789;42.610;23.040;2022-08-19T05:42:20;93516.47;;;18.41;100.00
10480;BME280;12789;42.610;23.040;2022-08-19T05:44:48;93521.81;;;18.54;100.00
10480;BME280;12789;42.610;23.040;2022-08-19T05:47:16;93515.38;;;18.63;100.00
10480;BME280;12789;42.610;23.040;2022-08-19T05:49:45;93522.38;;;18.90;100.00
10480;BME280;12789;42.610;23.040;2022-08-19T05:52:14;93515.50;;;18.89;100.00
10480;BME280;12789;42.610;23.040;2022-08-19T05:54:42;93522.94;;;18.85;100.00
10480;BME280;12789;42.610;23.040;2022-08-19T05:57:13;93522.41;;;19.03;100.00
10480;BME280;12789;42.610;23.040;2022-08-19T05:59:40;93526.06;;;19.15;100.00
10480;BME280;12789;42.610;23.040;2022-08-19T06:02:07;93519.50;;;19.32;100.00
10480;BME280;12789;42.610;23.040;2022-08-19T06:04:37;93518.50;;;21.63;100.00
10480;BME280;12789;42.610;23.040;2022-08-19T06:07:04;93531.25;;;22.46;95.77
10480;BME280;12789;42.610;23.040;2022-08-19T06:09:33;93523.53;;;22.44;92.74
10480;BME280;12789;42.610;23.040;2022-08-19T06:12:00;93527.91;;;22.92;89.87
10480;BME280;12789;42.610;23.040;2022-08-19T06:14:34;93526.13;;;23.04;88.16
10480;BME280;12789;42.610;23.040;2022-08-19T06:17:02;93524.25;;;21.03;91.60
10480;BME280;12789;42.610;23.040;2022-08-19T06:19:29;93522.78;;;22.37;92.07
10480;BME280;12789;42.610;23.040;2022-08-19T06:21:58;93524.31;;;23.23;88.07
10480;BME280;12789;42.610;23.040;2022-08-19T06:24:28;93524.44;;;23.46;86.78
10480;BME280;12789;42.610;23.040;2022-08-19T06:26:59;93522.34;;;22.16;86.25
10480;BME280;12789;42.610;23.040;2022-08-19T06:29:27;93522.84;;;21.44;88.13
10480;BME280;12789;42.610;23.040;2022-08-19T06:31:58;93512.97;;;21.95;90.48
10480;BME280;12789;42.610;23.040;2022-08-19T06:34:27;93512.63;;;22.76;87.88
10480;BME280;12789;42.610;23.040;2022-08-19T06:36:57;93519.94;;;22.39;87.26
10480;BME280;12789;42.610;23.040;2022-08-19T06:39:26;93521.22;;;22.72;88.28
10480;BME280;12789;42.610;23.040;2022-08-19T06:41:56;93524.31;;;23.23;85.06
10480;BME280;12789;42.610;23.040;2022-08-19T06:44:27;93519.09;;;22.63;82.88
10480;BME280;12789;42.610;23.040;2022-08-19T06:46:55;93512.38;;;23.32;83.35
10480;BME280;12789;42.610;23.040;2022-08-19T06:49:23;93517.41;;;23.51;83.48
10480;BME280;12789;42.610;23.040;2022-08-19T06:51:56;93514.81;;;23.33;79.60
10480;BME280;12789;42.610;23.040;2022-08-19T06:54:24;93518.31;;;24.04;80.25
10480;BME280;12789;42.610;23.040;2022-08-19T06:56:53;93517.63;;;24.20;79.98
10480;BME280;12789;42.610;23.040;2022-08-19T06:59:22;93510.75;;;24.42;79.11
10480;BME280;12789;42.610;23.040;2022-08-19T07:01:56;93510.31;;;24.68;78.58
10480;BME280;12789;42.610;23.040;2022-08-19T07:04:26;93511.44;;;24.95;77.74
10480;BME280;12789;42.610;23.040;2022-08-19T07:06:57;93503.38;;;24.67;73.09
10480;BME280;12789;42.610;23.040;2022-08-19T07:09:25;93508.22;;;24.70;72.51
10480;BME280;12789;42.610;23.040;2022-08-19T07:11:53;93507.47;;;25.20;76.22
10480;BME280;12789;42.610;23.040;2022-08-19T07:14:23;93502.03;;;24.53;72.63
10480;BME280;12789;42.610;23.040;2022-08-19T07:16:52;93504.97;;;24.91;74.98
10480;BME280;12789;42.610;23.040;2022-08-19T07:19:23;93489.94;;;25.59;74.43
10480;BME280;12789;42.610;23.040;2022-08-19T07:21:51;93493.69;;;25.91;74.15
10480;BME280;12789;42.610;23.040;2022-08-19T07:24:19;93500.91;;;26.39;78.20
10480;BME280;12789;42.610;23.040;2022-08-19T07:26:50;93493.66;;;26.18;72.07
10480;BME280;12789;42.610;23.040;2022-08-19T07:29:18;93487.50;;;25.85;72.61
10480;BME280;12789;42.610;23.040;2022-08-19T07:31:48;93480.16;;;26.53;73.08
10480;BME280;12789;42.610;23.040;2022-08-19T07:34:15;93482.06;;;26.95;70.78
10480;BME280;12789;42.610;23.040;2022-08-19T07:36:44;93484.88;;;27.27;70.55
10480;BME280;12789;42.610;23.040;2022-08-19T07:39:14;93478.81;;;27.31;72.35
10480;BME280;12789;42.610;23.040;2022-08-19T07:41:42;93476.41;;;26.70;71.02
10480;BME280;12789;42.610;23.040;2022-08-19T07:44:10;93479.47;;;27.00;66.76
10480;BME280;12789;42.610;23.040;2022-08-19T07:46:41;93487.41;;;27.17;67.80
10480;BME280;12789;42.610;23.040;2022-08-19T07:49:11;93485.88;;;27.90;69.54
10480;BME280;12789;42.610;23.040;2022-08-19T07:51:45;93478.16;;;27.93;67.63
10480;BME280;12789;42.610;23.040;2022-08-19T07:54:12;93473.50;;;27.57;64.88
10480;BME280;12789;42.610;23.040;2022-08-19T07:56:39;93477.59;;;27.86;65.78
10480;BME280;12789;42.610;23.040;2022-08-19T07:59:06;93477.09;;;27.42;64.95
10480;BME280;12789;42.610;23.040;2022-08-19T08:01:34;93474.97;;;27.91;66.84
10480;BME280;12789;42.610;23.040;2022-08-19T08:04:02;93470.56;;;28.70;63.62
10480;BME280;12789;42.610;23.040;2022-08-19T08:06:48;93477.53;;;28.39;63.85
10480;BME280;12789;42.610;23.040;2022-08-19T08:09:35;93462.88;;;29.29;61.45
10480;BME280;12789;42.610;23.040;2022-08-19T08:12:06;93467.66;;;29.22;63.46
10480;BME280;12789;42.610;23.040;2022-08-19T08:14:39;93459.66;;;29.27;64.38
10480;BME280;12789;42.610;23.040;2022-08-19T08:17:07;93458.19;;;29.46;62.73
10480;BME280;12789;42.610;23.040;2022-08-19T08:19:34;93454.97;;;29.44;60.96
10480;BME280;12789;42.610;23.040;2022-08-19T08:22:03;93450.97;;;28.96;61.95
10480;BME280;12789;42.610;23.040;2022-08-19T08:24:32;93446.97;;;29.49;60.83
10480;BME280;12789;42.610;23.040;2022-08-19T08:27:01;93448.44;;;30.07;59.39
10480;BME280;12789;42.610;23.040;2022-08-19T08:29:30;93439.59;;;30.46;58.19
10480;BME280;12789;42.610;23.040;2022-08-19T08:31:57;93432.31;;;30.91;54.97
10480;BME280;12789;42.610;23.040;2022-08-19T08:34:24;93429.41;;;30.78;53.93
10480;BME280;12789;42.610;23.040;2022-08-19T08:36:51;93426.69;;;31.66;52.04
10480;BME280;12789;42.610;23.040;2022-08-19T08:39:20;93424.59;;;32.35;53.48
10480;BME280;12789;42.610;23.040;2022-08-19T08:41:52;93424.72;;;31.18;52.51
10480;BME280;12789;42.610;23.040;2022-08-19T08:44:22;93425.13;;;30.77;53.22
10480;BME280;12789;42.610;23.040;2022-08-19T08:46:52;93423.53;;;30.41;51.46
10480;BME280;12789;42.610;23.040;2022-08-19T08:49:29;93428.00;;;31.00;52.66
10480;BME280;12789;42.610;23.040;2022-08-19T08:52:02;93415.50;;;31.98;51.34
10480;BME280;12789;42.610;23.040;2022-08-19T08:54:34;93414.63;;;30.95;50.82
10480;BME280;12789;42.610;23.040;2022-08-19T08:57:04;93412.84;;;31.93;51.55
10480;BME280;12789;42.610;23.040;2022-08-19T08:59:36;93413.84;;;32.02;49.51
10480;BME280;12789;42.610;23.040;2022-08-19T09:02:06;93407.47;;;32.31;47.48
10480;BME280;12789;42.610;23.040;2022-08-19T09:04:34;93412.31;;;34.16;50.07
10480;BME280;12789;42.610;23.040;2022-08-19T09:07:14;93407.22;;;33.55;48.68
10480;BME280;12789;42.610;23.040;2022-08-19T09:09:48;93399.44;;;32.59;48.45
10480;BME280;12789;42.610;23.040;2022-08-19T09:12:19;93398.44;;;32.22;46.63
10480;BME280;12789;42.610;23.040;2022-08-19T09:14:53;93394.22;;;33.43;46.79
10480;BME280;12789;42.610;23.040;2022-08-19T09:17:24;93391.41;;;32.54;45.49
10480;BME280;12789;42.610;23.040;2022-08-19T09:19:56;93389.78;;;33.34;43.93
10480;BME280;12789;42.610;23.040;2022-08-19T09:22:23;93383.00;;;33.13;46.42
10480;BME280;12789;42.610;23.040;2022-08-19T09:24:55;93382.75;;;32.62;44.83
10480;BME280;12789;42.610;23.040;2022-08-19T09:27:24;93384.53;;;32.43;45.77
10480;BME280;12789;42.610;23.040;2022-08-19T09:29:51;93376.13;;;33.49;43.29
10480;BME280;12789;42.610;23.040;2022-08-19T09:32:21;93374.31;;;32.74;43.04
10480;BME280;12789;42.610;23.040;2022-08-19T09:34:48;93374.56;;;32.49;43.97
10480;BME280;12789;42.610;23.040;2022-08-19T09:37:23;93375.81;;;32.56;44.02
10480;BME280;12789;42.610;23.040;2022-08-19T09:39:50;93374.97;;;31.99;44.53
10480;BME280;12789;42.610;23.040;2022-08-19T09:42:29;93359.34;;;33.15;40.52
10480;BME280;12789;42.610;23.040;2022-08-19T09:44:59;93370.91;;;35.03;42.61
10480;BME280;12789;42.610;23.040;2022-08-19T09:47:26;93359.72;;;35.50;40.69
10480;BME280;12789;42.610;23.040;2022-08-19T09:49:54;93356.25;;;34.37;42.80
10480;BME280;12789;42.610;23.040;2022-08-19T09:52:21;93354.44;;;33.82;40.32
10480;BME280;12789;42.610;23.040;2022-08-19T09:54:51;93351.09;;;33.90;39.61
10480;BME280;12789;42.610;23.040;2022-08-19T09:57:18;93352.69;;;33.91;40.66
10480;BME280;12789;42.610;23.040;2022-08-19T09:59:47;93350.41;;;34.16;39.72
10480;BME280;12789;42.610;23.040;2022-08-19T10:02:13;93344.28;;;34.43;38.03
10480;BME280;12789;42.610;23.040;2022-08-19T10:04:41;93336.31;;;34.38;38.19
10480;BME280;12789;42.610;23.040;2022-08-19T10:07:25;93339.88;;;34.79;37.24
10480;BME280;12789;42.610;23.040;2022-08-19T10:09:52;93332.16;;;34.59;38.03
10480;BME280;12789;42.610;23.040;2022-08-19T10:12:21;93336.41;;;33.83;40.04
10480;BME280;12789;42.610;23.040;2022-08-19T10:14:49;93334.13;;;34.40;37.80
10480;BME280;12789;42.610;23.040;2022-08-19T10:17:17;93324.25;;;33.48;39.29
10480;BME280;12789;42.610;23.040;2022-08-19T10:19:44;93322.41;;;35.03;38.27
10480;BME280;12789;42.610;23.040;2022-08-19T10:22:13;93322.56;;;34.53;36.94
10480;BME280;12789;42.610;23.040;2022-08-19T10:24:41;93318.81;;;35.35;36.16
10480;BME280;12789;42.610;23.040;2022-08-19T10:27:08;93323.63;;;36.08;36.98
10480;BME280;12789;42.610;23.040;2022-08-19T10:29:35;93314.28;;;36.58;35.76
10480;BME280;12789;42.610;23.040;2022-08-19T10:32:07;93309.50;;;36.94;35.36
10480;BME280;12789;42.610;23.040;2022-08-19T10:34:36;93303.59;;;38.58;34.78
10480;BME280;12789;42.610;23.040;2022-08-19T10:37:05;93308.25;;;36.61;35.54
10480;BME280;12789;42.610;23.040;2022-08-19T10:39:34;93299.91;;;36.88;33.72
10480;BME280;12789;42.610;23.040;2022-08-19T10:42:04;93309.91;;;37.18;36.45
10480;BME280;12789;42.610;23.040;2022-08-19T10:44:33;93306.91;;;36.28;36.05
10480;BME280;12789;42.610;23.040;2022-08-19T10:47:02;93300.13;;;37.81;34.32
10480;BME280;12789;42.610;23.040;2022-08-19T10:49:30;93308.91;;;38.12;33.59
10480;BME280;12789;42.610;23.040;2022-08-19T10:52:18;93301.22;;;38.48;33.58
10480;BME280;12789;42.610;23.040;2022-08-19T10:54:59;93301.19;;;39.11;34.64
10480;BME280;12789;42.610;23.040;2022-08-19T10:57:45;93291.63;;;40.89;33.75
10480;BME280;12789;42.610;23.040;2022-08-19T11:00:12;93300.63;;;40.69;33.09
10480;BME280;12789;42.610;23.040;2022-08-19T11:02:39;93290.44;;;37.72;30.78
10480;BME280;12789;42.610;23.040;2022-08-19T11:05:09;93291.31;;;39.85;31.17
10480;BME280;12789;42.610;23.040;2022-08-19T11:07:37;93291.66;;;39.63;30.80
10480;BME280;12789;42.610;23.040;2022-08-19T11:10:05;93285.81;;;39.93;30.74
10480;BME280;12789;42.610;23.040;2022-08-19T11:12:33;93275.13;;;38.27;31.41
10480;BME280;12789;42.610;23.040;2022-08-19T11:15:00;93280.78;;;38.59;33.13
10480;BME280;12789;42.610;23.040;2022-08-19T11:17:27;93273.00;;;38.58;32.97
10480;BME280;12789;42.610;23.040;2022-08-19T11:19:57;93267.03;;;37.59;31.20
10480;BME280;12789;42.610;23.040;2022-08-19T11:22:26;93279.31;;;37.90;34.68
10480;BME280;12789;42.610;23.040;2022-08-19T11:24:53;93274.50;;;37.79;29.09
10480;BME280;12789;42.610;23.040;2022-08-19T11:27:21;93272.16;;;39.40;28.50
10480;BME280;12789;42.610;23.040;2022-08-19T11:29:47;93263.84;;;37.57;29.50
10480;BME280;12789;42.610;23.040;2022-08-19T11:32:16;93261.78;;;39.05;29.17
10480;BME280;12789;42.610;23.040;2022-08-19T11:34:43;93259.41;;;39.04;29.07
10480;BME280;12789;42.610;23.040;2022-08-19T11:37:10;93243.63;;;41.56;25.67
10480;BME280;12789;42.610;23.040;2022-08-19T11:39:38;93246.78;;;39.08;29.65
10480;BME280;12789;42.610;23.040;2022-08-19T11:42:06;93252.44;;;40.58;29.28
10480;BME280;12789;42.610;23.040;2022-08-19T11:44:53;93242.91;;;40.84;28.38
10480;BME280;12789;42.610;23.040;2022-08-19T11:47:21;93249.34;;;39.04;29.22
10480;BME280;12789;42.610;23.040;2022-08-19T11:49:48;93248.16;;;40.24;27.62
10480;BME280;12789;42.610;23.040;2022-08-19T11:52:16;93244.09;;;40.75;28.39
10480;BME280;12789;42.610;23.040;2022-08-19T11:54:44;93235.63;;;38.72;28.01
10480;BME280;12789;42.610;23.040;2022-08-19T11:57:11;93234.50;;;39.59;28.57
10480;BME280;12789;42.610;23.040;2022-08-19T11:59:42;93230.41;;;41.07;28.61
10480;BME280;12789;42.610;23.040;2022-08-19T12:02:09;93223.78;;;41.68;28.07
10480;BME280;12789;42.610;23.040;2022-08-19T12:04:36;93226.22;;;39.56;28.77
10480;BME280;12789;42.610;23.040;2022-08-19T12:07:06;93216.69;;;40.35;27.86
10480;BME280;12789;42.610;23.040;2022-08-19T12:09:33;93215.28;;;42.24;27.51
10480;BME280;12789;42.610;23.040;2022-08-19T12:12:03;93217.84;;;41.78;25.95
10480;BME280;12789;42.610;23.040;2022-08-19T12:14:29;93223.97;;;42.72;27.35
10480;BME280;12789;42.610;23.040;2022-08-19T12:16:57;93206.53;;;41.52;26.83
10480;BME280;12789;42.610;23.040;2022-08-19T12:19:25;93203.63;;;40.73;27.31
10480;BME280;12789;42.610;23.040;2022-08-19T12:21:52;93204.16;;;41.90;28.07
10480;BME280;12789;42.610;23.040;2022-08-19T12:24:22;93205.09;;;42.21;28.21
10480;BME280;12789;42.610;23.040;2022-08-19T12:26:49;93209.91;;;41.73;29.36
10480;BME280;12789;42.610;23.040;2022-08-19T12:29:18;93203.56;;;40.25;26.64
10480;BME280;12789;42.610;23.040;2022-08-19T12:31:45;93195.81;;;41.43;26.52
10480;BME280;12789;42.610;23.040;2022-08-19T12:34:12;93202.88;;;41.72;27.04
10480;BME280;12789;42.610;23.040;2022-08-19T12:36:39;93199.47;;;41.75;27.73
10480;BME280;12789;42.610;23.040;2022-08-19T12:39:07;93194.38;;;40.86;27.63
10480;BME280;12789;42.610;23.040;2022-08-19T12:41:34;93193.09;;;41.19;28.61
10480;BME280;12789;42.610;23.040;2022-08-19T12:44:02;93198.81;;;39.28;28.81
10480;BME280;12789;42.610;23.040;2022-08-19T12:46:31;93196.16;;;41.81;27.78
10480;BME280;12789;42.610;23.040;2022-08-19T12:49:01;93190.38;;;41.19;26.38
10480;BME280;12789;42.610;23.040;2022-08-19T12:51:28;93180.59;;;40.35;26.17
10480;BME280;12789;42.610;23.040;2022-08-19T12:53:57;93195.28;;;38.99;28.00
10480;BME280;12789;42.610;23.040;2022-08-19T12:56:24;93191.50;;;40.47;27.19